Time;durP1;ratioP1;P1;durP2;ratioP2;P2;SDS_P1;SDS_P2;PMS_P1;PMS_P2;Temp;Humidity;BMP_temperature;BMP_pressure;BME280_temperature;BME280_humidity;BME280_pressure;Samples;Min_cycle;Max_cycle;Signal;HPM_P1;HPM_P2
2021/07/31 00:00:03;;;;;;;20.30;13.70;;;;;;;25.33;61.79;100649.31;5111236;28;20669;-60
2021/07/31 00:02:28;;;;;;;17.43;11.57;;;;;;;25.28;61.92;100649.41;5110787;28;20170;-60
2021/07/31 00:04:54;;;;;;;20.10;12.20;;;;;;;24.96;62.05;100612.34;5110695;28;20577;-60
2021/07/31 00:07:19;;;;;;;16.23;11.70;;;;;;;24.83;61.58;100589.53;5110231;28;20596;-59
2021/07/31 00:09:45;;;;;;;17.97;12.43;;;;;;;25.34;61.48;100655.78;5110807;28;20666;-60
2021/07/31 00:12:10;;;;;;;17.60;11.30;;;;;;;25.33;61.08;100652.16;5110878;28;20201;-60
2021/07/31 00:14:36;;;;;;;21.23;12.43;;;;;;;25.33;60.80;100651.41;5111031;28;20193;-60
2021/07/31 00:17:06;;;;;;;19.57;12.03;;;;;;;25.30;60.50;100658.91;5110236;28;20656;-60
2021/07/31 00:19:31;;;;;;;21.20;11.53;;;;;;;25.31;60.61;100654.00;5110999;28;20166;-60
2021/07/31 00:21:57;;;;;;;18.57;11.53;;;;;;;25.23;60.45;100653.78;5114689;28;20185;-60
2021/07/31 00:24:22;;;;;;;19.83;11.57;;;;;;;25.25;60.65;100651.25;5114784;28;20202;-60
2021/07/31 00:26:48;;;;;;;18.17;11.30;;;;;;;25.29;60.79;100648.84;5113840;28;20189;-60
2021/07/31 00:29:13;;;;;;;21.37;11.37;;;;;;;25.32;60.52;100652.69;5114949;28;20568;-60
2021/07/31 00:31:39;;;;;;;17.20;11.30;;;;;;;24.64;60.42;100548.28;5114662;28;20174;-60
2021/07/31 00:34:04;;;;;;;18.37;11.17;;;;;;;25.34;60.07;100665.03;5114631;28;20179;-60
2021/07/31 00:36:30;;;;;;;20.23;11.50;;;;;;;25.40;60.02;100667.81;5113953;28;20178;-60
2021/07/31 00:38:55;;;;;;;18.43;11.73;;;;;;;25.41;59.68;100663.66;5114611;28;20198;-60
2021/07/31 00:41:21;;;;;;;20.77;10.90;;;;;;;25.42;59.47;100665.97;5114834;28;20178;-60
2021/07/31 00:43:46;;;;;;;16.87;10.70;;;;;;;25.40;59.36;100659.31;5114357;28;20221;-60
2021/07/31 00:46:12;;;;;;;21.90;11.50;;;;;;;25.34;59.35;100667.13;5113701;28;20178;-60
2021/07/31 00:48:37;;;;;;;20.00;11.47;;;;;;;25.27;59.70;100676.19;5114665;28;20265;-60
2021/07/31 00:51:03;;;;;;;18.63;11.00;;;;;;;25.25;59.92;100676.75;5095748;28;20201;-60
2021/07/31 00:53:30;;;;;;;17.20;11.70;;;;;;;25.26;59.37;100683.97;5114496;28;20167;-60
2021/07/31 00:55:57;;;;;;;20.77;9.87;;;;;;;24.88;59.35;100613.47;5113509;28;20700;-60
2021/07/31 00:58:23;;;;;;;17.27;10.40;;;;;;;25.35;59.56;100677.94;5114321;28;20173;-60
2021/07/31 01:00:49;;;;;;;16.67;10.63;;;;;;;25.37;59.49;100683.84;5114147;28;20207;-60
2021/07/31 01:03:14;;;;;;;19.07;11.53;;;;;;;25.36;59.40;100684.38;5114336;28;20166;-60
2021/07/31 01:05:40;;;;;;;19.17;11.13;;;;;;;25.41;59.41;100687.16;5113751;28;20197;-60
2021/07/31 01:08:06;;;;;;;19.07;10.70;;;;;;;25.01;58.89;100619.22;5113498;28;20182;-60
2021/07/31 01:10:32;;;;;;;13.57;10.03;;;;;;;25.50;58.98;100688.84;5114034;28;20179;-60
2021/07/31 01:13:00;;;;;;;15.80;10.50;;;;;;;25.22;59.35;100655.09;5114164;28;20553;-60
2021/07/31 01:15:26;;;;;;;18.07;10.67;;;;;;;25.28;59.81;100680.59;5114001;28;20170;-60
2021/07/31 01:17:51;;;;;;;18.47;10.70;;;;;;;25.28;59.78;100697.63;5113018;28;20167;-60
2021/07/31 01:20:17;;;;;;;18.17;10.97;;;;;;;25.31;59.72;100673.84;5114076;28;20175;-60
2021/07/31 01:22:43;;;;;;;17.33;11.40;;;;;;;25.29;59.88;100691.38;5113860;28;20174;-60
2021/07/31 01:25:09;;;;;;;21.07;10.40;;;;;;;25.35;59.50;100688.50;5113660;28;20205;-60
2021/07/31 01:27:37;;;;;;;20.13;10.20;;;;;;;25.40;59.18;100687.69;5113012;28;20179;-60
2021/07/31 01:30:03;;;;;;;15.93;9.87;;;;;;;25.27;59.32;100670.53;5113646;28;20602;-60
2021/07/31 01:32:29;;;;;;;18.60;9.77;;;;;;;25.28;59.30;100675.69;5112369;28;20174;-60
2021/07/31 01:34:54;;;;;;;24.63;10.83;;;;;;;25.36;59.24;100681.53;5113558;28;20198;-60
2021/07/31 01:37:20;;;;;;;22.33;10.57;;;;;;;25.28;59.38;100684.19;5112501;28;20181;-60
2021/07/31 01:39:47;;;;;;;21.87;10.90;;;;;;;25.21;59.28;100666.97;5113531;28;20173;-60
2021/07/31 01:42:13;;;;;;;16.60;10.43;;;;;;;25.22;59.23;100680.63;5113373;28;20788;-60
2021/07/31 01:44:39;;;;;;;16.10;10.17;;;;;;;25.23;59.14;100689.91;5113423;28;20190;-59
2021/07/31 01:47:05;;;;;;;17.93;9.87;;;;;;;25.15;59.41;100695.41;5112388;28;20251;-60
2021/07/31 01:49:31;;;;;;;15.73;9.50;;;;;;;25.14;59.37;100687.41;5113459;28;20171;-60
2021/07/31 01:51:57;;;;;;;13.43;9.60;;;;;;;25.13;59.42;100689.47;5113135;28;20167;-60
2021/07/31 01:54:22;;;;;;;11.67;9.40;;;;;;;25.05;59.74;100677.19;5113447;28;20711;-60
2021/07/31 01:56:48;;;;;;;13.73;9.67;;;;;;;24.78;58.58;100649.13;5112145;28;20559;-60
2021/07/31 01:59:14;;;;;;;13.97;8.43;;;;;;;24.76;57.65;100663.81;5094868;28;20185;-60
2021/07/31 02:01:40;;;;;;;16.03;9.07;;;;;;;24.82;57.85;100678.69;5113482;28;20167;-60
2021/07/31 02:04:05;;;;;;;18.60;8.90;;;;;;;24.80;58.00;100675.63;5112900;28;20201;-60
2021/07/31 02:06:31;;;;;;;16.73;9.43;;;;;;;24.71;58.17;100669.56;5112008;28;20167;-60
2021/07/31 02:08:57;;;;;;;15.90;8.77;;;;;;;24.53;58.00;100636.97;5112881;28;20439;-60
2021/07/31 02:11:22;;;;;;;14.87;8.53;;;;;;;24.89;57.83;100674.53;5112893;28;20174;-60
2021/07/31 02:13:48;;;;;;;11.80;9.03;;;;;;;24.96;57.80;100673.94;5112728;28;20174;-60
2021/07/31 02:16:22;;;;;;;15.03;8.43;;;;;;;24.95;57.19;100672.41;5111980;28;20711;-60
2021/07/31 02:18:47;;;;;;;15.90;8.47;;;;;;;24.83;57.11;100657.56;5112676;28;20609;-59
2021/07/31 02:21:13;;;;;;;13.77;7.87;;;;;;;25.00;57.14;100683.69;5112846;28;20201;-60
2021/07/31 02:23:38;;;;;;;14.80;8.07;;;;;;;24.94;57.39;100685.03;5112257;28;20544;-60
2021/07/31 02:26:04;;;;;;;17.20;8.50;;;;;;;24.97;57.36;100689.66;5111643;28;20271;-60
2021/07/31 02:28:29;;;;;;;13.93;8.10;;;;;;;24.93;57.58;100680.69;5094132;28;20544;-60
2021/07/31 02:30:54;;;;;;;13.83;7.97;;;;;;;24.88;57.80;100692.84;5112372;28;20167;-60
2021/07/31 02:33:20;;;;;;;12.23;8.07;;;;;;;24.90;57.82;100685.34;5112436;28;20185;-61
2021/07/31 02:35:48;;;;;;;18.20;8.30;;;;;;;24.89;57.89;100694.38;5111902;28;20202;-60
2021/07/31 02:38:13;;;;;;;16.67;8.07;;;;;;;24.77;58.25;100676.69;5112053;28;20193;-60
2021/07/31 02:40:39;;;;;;;14.07;8.27;;;;;;;24.84;58.16;100695.97;5112336;28;20197;-60
2021/07/31 02:43:04;;;;;;;16.53;8.27;;;;;;;24.81;58.29;100696.22;5111484;28;20229;-60
2021/07/31 02:45:30;;;;;;;14.20;8.37;;;;;;;24.75;58.25;100692.69;5112335;28;20275;-60
2021/07/31 02:47:56;;;;;;;21.17;8.27;;;;;;;24.82;58.33;100701.38;5111132;28;20550;-60
2021/07/31 02:50:21;;;;;;;16.27;8.67;;;;;;;23.72;58.22;100531.50;5112208;28;20182;-60
2021/07/31 02:52:46;;;;;;;14.33;8.03;;;;;;;24.80;58.48;100701.16;5112075;28;20182;-60
2021/07/31 02:55:12;;;;;;;12.73;7.93;;;;;;;24.79;58.54;100716.63;5112402;28;20175;-60
2021/07/31 02:57:38;;;;;;;15.43;8.93;;;;;;;24.72;58.98;100708.69;5111163;28;20184;-60
2021/07/31 03:00:04;;;;;;;16.53;8.57;;;;;;;24.73;58.73;100696.06;5111889;28;20652;-60
2021/07/31 03:02:29;;;;;;;14.63;8.97;;;;;;;24.81;59.06;100716.06;5111776;28;20170;-60
2021/07/31 03:04:55;;;;;;;16.80;8.47;;;;;;;24.88;58.83;100715.50;5111632;28;20577;-60
2021/07/31 03:07:20;;;;;;;12.67;8.37;;;;;;;24.92;58.53;100719.59;5110968;28;20196;-60
2021/07/31 03:09:46;;;;;;;15.37;8.80;;;;;;;24.99;58.61;100730.38;5111364;28;20258;-60
2021/07/31 03:12:12;;;;;;;16.97;8.73;;;;;;;25.02;58.06;100734.97;5111548;28;20174;-60
2021/07/31 03:14:37;;;;;;;17.97;9.33;;;;;;;25.03;58.04;100736.50;5111674;28;20250;-61
2021/07/31 03:17:03;;;;;;;15.97;9.33;;;;;;;24.89;58.47;100734.84;5110450;28;20185;-60
2021/07/31 03:19:28;;;;;;;19.00;9.10;;;;;;;24.30;58.30;100629.94;5111771;28;20261;-60
2021/07/31 03:21:54;;;;;;;11.90;8.20;;;;;;;24.70;58.49;100713.34;5111502;28;20231;-60
2021/07/31 03:24:19;;;;;;;17.80;9.30;;;;;;;24.71;58.65;100743.97;5111212;28;20189;-60
2021/07/31 03:26:45;;;;;;;18.07;8.43;;;;;;;24.66;59.02;100758.97;5110603;28;20175;-60
2021/07/31 03:29:10;;;;;;;19.70;8.73;;;;;;;23.98;59.24;100662.06;5111677;28;20227;-60
2021/07/31 03:31:36;;;;;;;17.37;9.50;;;;;;;24.43;59.69;100756.78;5111452;28;20167;-60
2021/07/31 03:34:01;;;;;;;21.93;10.00;;;;;;;24.40;59.92;100755.75;5111303;28;20174;-60
2021/07/31 03:36:26;;;;;;;17.47;9.70;;;;;;;24.33;60.19;100738.56;5110485;28;20582;-60
2021/07/31 03:38:52;;;;;;;16.33;9.30;;;;;;;24.44;59.64;100747.75;5111208;28;20170;-60
2021/07/31 03:41:17;;;;;;;16.27;8.53;;;;;;;24.24;59.79;100708.50;5111244;28;20261;-60
2021/07/31 03:43:43;;;;;;;12.53;8.97;;;;;;;24.72;59.73;100764.59;5110885;28;20229;-60
2021/07/31 03:46:08;;;;;;;20.67;9.40;;;;;;;24.86;59.85;100761.38;5110318;28;20556;-60
2021/07/31 03:48:34;;;;;;;19.37;9.20;;;;;;;24.94;59.48;100761.59;5111571;28;20179;-60
2021/07/31 03:51:00;;;;;;;17.00;8.93;;;;;;;25.07;59.24;100770.25;5110895;28;20178;-60
2021/07/31 03:53:25;;;;;;;20.27;9.50;;;;;;;25.14;59.02;100772.50;5111318;28;20257;-60
2021/07/31 03:55:51;;;;;;;17.70;9.23;;;;;;;25.21;58.92;100771.91;5109615;28;20170;-60
2021/07/31 03:58:16;;;;;;;20.90;9.43;;;;;;;25.26;58.91;100766.22;5110661;28;20188;-60
2021/07/31 04:00:42;;;;;;;17.97;8.83;;;;;;;25.26;58.11;100762.59;5111112;28;20223;-60
2021/07/31 04:03:09;;;;;;;17.00;9.27;;;;;;;24.95;57.99;100710.03;5110908;28;20340;-60
2021/07/31 04:05:34;;;;;;;21.83;9.77;;;;;;;25.18;57.79;100736.84;5110985;28;20186;-60
2021/07/31 04:07:59;;;;;;;17.73;9.37;;;;;;;24.83;58.09;100668.16;5110013;28;20207;-60
2021/07/31 04:10:25;;;;;;;17.47;9.13;;;;;;;25.47;58.26;100760.84;5110704;28;20257;-61
2021/07/31 04:12:50;;;;;;;17.70;9.30;;;;;;;25.56;57.33;100766.94;5110754;28;20434;-60
2021/07/31 04:15:16;;;;;;;24.07;9.50;;;;;;;24.65;57.52;100637.63;5111313;28;20166;-60
2021/07/31 04:17:42;;;;;;;16.53;9.00;;;;;;;25.46;57.24;100770.66;5110199;28;20613;-60
2021/07/31 04:20:08;;;;;;;19.80;9.43;;;;;;;25.44;57.61;100776.09;5110837;28;20185;-60
2021/07/31 04:22:33;;;;;;;15.60;8.60;;;;;;;25.45;57.67;100786.16;5110851;28;20227;-61
2021/07/31 04:24:59;;;;;;;15.93;9.10;;;;;;;25.40;57.66;100786.97;5110353;28;20182;-60
2021/07/31 04:27:25;;;;;;;16.67;9.33;;;;;;;25.40;57.45;100789.81;5110034;28;20178;-60
2021/07/31 04:29:51;;;;;;;18.37;8.70;;;;;;;25.42;57.45;100782.31;5111108;28;20162;-60
2021/07/31 04:32:16;;;;;;;18.17;8.70;;;;;;;25.51;57.46;100775.50;5110699;28;20197;-60
2021/07/31 04:34:41;;;;;;;18.67;9.50;;;;;;;25.69;57.03;100798.25;5110729;28;20231;-60
2021/07/31 04:37:07;;;;;;;17.80;9.30;;;;;;;25.77;57.51;100796.38;5109720;28;20175;-60
2021/07/31 04:39:33;;;;;;;18.93;9.80;;;;;;;25.89;58.28;100803.44;5110702;28;20602;-60
2021/07/31 04:41:59;;;;;;;17.47;9.73;;;;;;;25.73;58.47;100773.19;5110351;28;20283;-60
2021/07/31 04:44:24;;;;;;;18.97;9.60;;;;;;;26.06;58.03;100812.56;5110904;28;20190;-60
2021/07/31 04:46:50;;;;;;;19.67;9.03;;;;;;;26.18;57.86;100816.81;5109622;28;20174;-60
2021/07/31 04:49:18;;;;;;;18.77;10.23;;;;;;;26.23;57.13;100813.13;5110617;28;20171;-60
2021/07/31 04:51:44;;;;;;;16.40;9.37;;;;;;;26.37;56.39;100809.09;5110489;28;20243;-61
2021/07/31 04:54:10;;;;;;;14.40;8.77;;;;;;;26.23;56.12;100766.91;5110707;28;20170;-60
2021/07/31 04:56:37;;;;;;;18.50;9.40;;;;;;;25.57;55.83;100659.84;5109997;28;20555;-61
2021/07/31 04:59:02;;;;;;;23.30;9.43;;;;;;;26.54;55.77;100795.41;5110339;28;20170;-60
2021/07/31 05:01:27;;;;;;;20.43;9.93;;;;;;;26.25;55.57;100761.47;5110546;28;20251;-60
2021/07/31 05:03:53;;;;;;;18.20;9.43;;;;;;;26.73;55.76;100810.41;5110377;28;20170;-60
2021/07/31 05:06:20;;;;;;;19.90;10.00;;;;;;;26.83;55.51;100808.69;5110658;28;20247;-60
2021/07/31 05:08:46;;;;;;;20.70;10.93;;;;;;;26.76;55.52;100786.56;5113854;28;20183;-61
2021/07/31 05:11:11;;;;;;;16.30;9.73;;;;;;;27.00;55.40;100814.88;5113945;28;20232;-60
2021/07/31 05:13:37;;;;;;;19.10;9.90;;;;;;;27.07;55.00;100819.91;5113974;28;20170;-61
2021/07/31 05:16:03;;;;;;;18.93;9.47;;;;;;;27.14;54.07;100813.63;5113131;28;20205;-60
2021/07/31 05:18:28;;;;;;;16.83;10.00;;;;;;;27.18;54.20;100814.06;5114092;28;20175;-60
2021/07/31 05:20:54;;;;;;;17.57;9.40;;;;;;;27.26;54.33;100809.28;5113882;28;20174;-60
2021/07/31 05:23:19;;;;;;;15.37;10.00;;;;;;;27.34;54.60;100803.72;5113786;28;20557;-60
2021/07/31 05:25:45;;;;;;;22.50;9.03;;;;;;;27.34;54.26;100798.03;5113021;28;20251;-59
2021/07/31 05:28:14;;;;;;;15.23;9.03;;;;;;;27.45;53.83;100798.63;5113507;28;20252;-60
2021/07/31 05:30:40;;;;;;;19.13;9.40;;;;;;;27.52;54.06;100803.66;5113602;28;20162;-60
2021/07/31 05:33:06;;;;;;;21.75;9.65;;;;;;;27.61;54.27;100811.78;5113555;28;20205;-61
2021/07/31 05:35:32;;;;;;;16.70;9.33;;;;;;;27.58;54.15;100807.16;5113760;28;20174;-60
2021/07/31 05:37:58;;;;;;;14.63;9.47;;;;;;;27.74;54.18;100814.59;5112602;28;20560;-61
2021/07/31 05:40:23;;;;;;;15.60;8.40;;;;;;;27.80;54.14;100818.13;5113454;28;20166;-60
2021/07/31 05:42:49;;;;;;;18.20;9.27;;;;;;;27.96;54.46;100822.00;5113164;27;20716;-60
2021/07/31 05:45:14;;;;;;;16.77;9.68;;;;;;;27.36;54.43;100725.03;5113434;28;20201;-60
2021/07/31 05:47:40;;;;;;;14.60;9.40;;;;;;;28.14;54.99;100833.25;5112649;28;20220;-61
2021/07/31 05:50:07;;;;;;;14.03;9.70;;;;;;;28.25;55.22;100833.03;5113045;28;20227;-61
2021/07/31 05:52:34;;;;;;;16.15;9.40;;;;;;;28.45;53.60;100843.00;5113374;28;20166;-60
2021/07/31 05:55:01;;;;;;;16.45;9.70;;;;;;;28.58;53.44;100848.66;5113195;28;20173;-61
2021/07/31 05:57:26;;;;;;;14.10;9.38;;;;;;;28.89;52.71;100830.59;5112348;28;20167;-60
2021/07/31 05:59:52;;;;;;;19.52;9.88;;;;;;;29.06;51.94;100833.81;5113081;28;20171;-60
2021/07/31 06:02:18;;;;;;;15.45;9.50;;;;;;;29.17;50.47;100831.47;5113304;28;20170;-60
2021/07/31 06:04:43;;;;;;;18.30;9.25;;;;;;;29.30;50.47;100830.63;5113277;28;20194;-60
2021/07/31 06:07:11;;;;;;;11.73;9.52;;;;;;;29.42;50.24;100835.50;5112018;28;20705;-61
2021/07/31 06:09:37;;;;;;;15.93;9.32;;;;;;;29.51;49.83;100843.56;5110841;28;20560;-60
2021/07/31 06:12:04;;;;;;;17.15;9.85;;;;;;;29.61;50.00;100850.34;5112537;28;20703;-60
2021/07/31 06:14:33;;;;;;;16.83;9.18;;;;;;;29.49;48.60;100799.78;5113142;28;20235;-60
2021/07/31 06:16:59;;;;;;;12.75;8.95;;;;;;;29.87;48.66;100826.53;5111848;28;20186;-61
2021/07/31 06:19:25;;;;;;;14.50;8.70;;;;;;;30.12;47.77;100825.56;5112296;28;20277;-60
2021/07/31 06:21:50;;;;;;;16.27;9.02;;;;;;;30.35;47.33;100832.16;5112972;28;20185;-60
2021/07/31 06:24:16;;;;;;;17.25;9.57;;;;;;;30.16;45.82;100833.78;5107946;28;20687;-60
2021/07/31 06:26:41;;;;;;;14.80;9.52;;;;;;;29.42;46.31;100715.59;5111700;28;20181;-61
2021/07/31 06:29:07;;;;;;;18.70;10.13;;;;;;;30.38;46.26;100822.44;5112279;28;20182;-61
2021/07/31 06:31:32;;;;;;;12.20;9.27;;;;;;;30.16;46.22;100776.63;5112413;28;20619;-60
2021/07/31 06:33:58;;;;;;;19.95;10.35;;;;;;;30.55;46.09;100802.69;5112451;28;20186;-60
2021/07/31 06:36:24;;;;;;;16.30;8.82;;;;;;;30.88;46.22;100813.09;5111566;28;20178;-61
2021/07/31 06:38:50;;;;;;;15.27;9.45;;;;;;;30.51;46.02;100798.66;5112399;28;20178;-60
2021/07/31 06:41:16;;;;;;;15.15;9.65;;;;;;;30.34;45.94;100809.84;5112270;28;20182;-60
2021/07/31 06:43:41;;;;;;;15.48;9.85;;;;;;;30.20;47.09;100808.47;5104141;28;20226;-60
2021/07/31 06:46:11;;;;;;;16.52;9.95;;;;;;;30.29;47.55;100817.25;5111310;28;20241;-60
2021/07/31 06:48:37;;;;;;;18.02;9.50;;;;;;;30.45;47.87;100813.13;5112283;28;20188;-60
2021/07/31 06:51:02;;;;;;;15.02;9.82;;;;;;;30.59;47.86;100820.25;5100564;27;20194;-60
2021/07/31 06:53:28;;;;;;;16.05;9.68;;;;;;;30.69;47.66;100811.91;5105141;28;20182;-61
2021/07/31 06:55:57;;;;;;;18.27;9.77;;;;;;;30.83;47.55;100816.91;5108149;28;20181;-61
2021/07/31 06:58:22;;;;;;;15.70;9.40;;;;;;;30.84;47.79;100812.72;5109612;28;20692;-61
2021/07/31 07:00:48;;;;;;;17.50;10.02;;;;;;;30.93;47.16;100820.75;5109504;28;20214;-61
2021/07/31 07:03:14;;;;;;;19.02;9.85;;;;;;;30.99;46.34;100826.28;5107091;28;20591;-61
2021/07/31 07:05:39;;;;;;;16.00;9.52;;;;;;;31.11;46.55;100821.72;5108100;28;20202;-61
2021/07/31 07:08:04;;;;;;;19.00;9.63;;;;;;;31.20;45.79;100804.78;5096204;27;20190;-60
2021/07/31 07:10:30;;;;;;;14.15;9.68;;;;;;;31.42;45.40;100820.44;5106499;28;20192;-61
2021/07/31 07:12:55;;;;;;;16.13;9.82;;;;;;;31.52;45.30;100819.28;5104858;28;20175;-61
2021/07/31 07:15:21;;;;;;;17.55;9.98;;;;;;;31.56;46.21;100816.78;5107295;28;20171;-61
2021/07/31 07:17:46;;;;;;;20.67;10.40;;;;;;;31.51;45.76;100808.38;5098635;28;20298;-61
2021/07/31 07:20:12;;;;;;;17.38;10.10;;;;;;;31.69;44.64;100816.56;5114169;27;20568;-61
2021/07/31 07:22:37;;;;;;;15.35;10.05;;;;;;;31.72;44.38;100812.56;5107236;27;20178;-61
2021/07/31 07:25:03;;;;;;;22.45;9.80;;;;;;;31.79;44.50;100813.94;5100863;27;20202;-61
2021/07/31 07:27:29;;;;;;;18.48;10.30;;;;;;;31.69;44.59;100810.84;5112478;27;20215;-60
2021/07/31 07:29:54;;;;;;;18.02;10.27;;;;;;;31.65;44.53;100816.22;5103088;28;20179;-61
2021/07/31 07:32:19;;;;;;;18.10;9.85;;;;;;;31.75;44.35;100814.31;5106871;28;20276;-60
2021/07/31 07:34:45;;;;;;;14.68;10.13;;;;;;;31.80;43.83;100809.72;5108971;28;20174;-60
2021/07/31 07:37:11;;;;;;;19.58;10.27;;;;;;;31.73;44.29;100779.72;5108079;28;20569;-61
2021/07/31 07:39:36;;;;;;;17.15;10.50;;;;;;;31.58;43.93;100778.97;5101054;28;20184;-61
2021/07/31 07:42:04;;;;;;;16.40;10.52;;;;;;;31.81;44.06;100817.75;5104361;28;20238;-61
2021/07/31 07:44:29;;;;;;;20.85;10.82;;;;;;;31.77;44.32;100805.91;5089864;28;20202;-61
2021/07/31 07:46:55;;;;;;;19.08;9.73;;;;;;;31.85;44.30;100815.25;5098668;28;20177;-60
2021/07/31 07:49:20;;;;;;;14.35;9.60;;;;;;;31.90;44.73;100805.69;5106783;28;20184;-61
2021/07/31 07:51:46;;;;;;;15.52;9.85;;;;;;;31.85;44.64;100806.66;5108353;28;20178;-61
2021/07/31 07:54:11;;;;;;;19.17;9.65;;;;;;;31.85;44.57;100803.78;5106192;28;20877;-60
2021/07/31 07:56:36;;;;;;;16.10;10.32;;;;;;;31.62;46.24;100790.78;5097274;28;20688;-61
2021/07/31 07:59:04;;;;;;;18.52;10.32;;;;;;;31.46;46.60;100803.63;5099184;28;20572;-61
2021/07/31 08:01:31;;;;;;;16.15;9.38;;;;;;;31.39;45.63;100795.78;5105294;28;20197;-61
2021/07/31 08:03:57;;;;;;;20.30;10.23;;;;;;;31.39;45.75;100795.78;5091331;28;20189;-60
2021/07/31 08:06:22;;;;;;;17.83;10.07;;;;;;;31.56;45.69;100804.56;5107874;28;20626;-61
2021/07/31 08:08:48;;;;;;;17.42;9.98;;;;;;;31.71;45.50;100798.81;5091267;28;20184;-60
2021/07/31 08:11:13;;;;;;;15.75;10.65;;;;;;;31.79;44.69;100813.94;5109705;28;20184;-61
2021/07/31 08:13:39;;;;;;;18.80;10.05;;;;;;;31.87;44.42;100806.06;5109171;28;20178;-60
2021/07/31 08:16:05;;;;;;;13.95;9.95;;;;;;;31.92;44.77;100803.00;5107744;28;20212;-60
2021/07/31 08:18:30;;;;;;;12.02;9.75;;;;;;;31.96;44.86;100799.75;5108164;28;20178;-61
2021/07/31 08:20:56;;;;;;;15.98;9.10;;;;;;;31.92;44.95;100785.81;5107996;28;20250;-61
2021/07/31 08:23:21;;;;;;;19.63;9.52;;;;;;;32.14;43.43;100796.44;5108422;28;20190;-61
2021/07/31 08:25:47;;;;;;;14.68;9.40;;;;;;;32.11;44.09;100791.09;5107866;28;20229;-61
2021/07/31 08:28:12;;;;;;;17.27;9.70;;;;;;;31.92;43.69;100805.88;5108806;28;20184;-61
2021/07/31 08:30:38;;;;;;;16.75;9.82;;;;;;;31.95;43.58;100793.25;5108996;28;20227;-61
2021/07/31 08:33:03;;;;;;;13.45;8.95;;;;;;;31.98;43.65;100800.69;5110075;28;20687;-61
2021/07/31 08:35:29;;;;;;;16.80;9.73;;;;;;;31.86;43.17;100796.72;5110081;28;20245;-61
2021/07/31 08:37:55;;;;;;;17.42;9.75;;;;;;;31.46;43.45;100772.88;5108659;28;20644;-60
2021/07/31 08:40:21;;;;;;;16.17;9.77;;;;;;;31.62;43.38;100773.59;5110043;28;20174;-61
2021/07/31 08:42:46;;;;;;;15.65;8.95;;;;;;;31.77;43.72;100779.34;5112948;28;20230;-61
2021/07/31 08:45:13;;;;;;;16.08;9.55;;;;;;;31.66;43.16;100754.72;5113988;28;20197;-61
2021/07/31 08:47:39;;;;;;;16.48;8.77;;;;;;;31.50;42.89;100735.25;5113216;28;20204;-61
2021/07/31 08:50:06;;;;;;;13.55;9.73;;;;;;;31.96;43.16;100791.16;5113743;28;20174;-61
2021/07/31 08:52:33;;;;;;;15.55;10.00;;;;;;;32.10;43.38;100784.59;5113839;28;20498;-60
2021/07/31 08:54:59;;;;;;;15.73;10.00;;;;;;;32.38;43.26;100778.59;5113601;28;20198;-61
2021/07/31 08:57:25;;;;;;;18.70;10.02;;;;;;;32.58;42.96;100774.66;5113064;28;20182;-61
2021/07/31 08:59:50;;;;;;;15.43;9.98;;;;;;;32.76;42.33;100778.38;5113729;28;20564;-61
2021/07/31 09:02:16;;;;;;;18.60;10.00;;;;;;;32.79;42.40;100780.09;5113976;28;20608;-61
2021/07/31 09:04:44;;;;;;;15.32;9.75;;;;;;;32.76;41.93;100761.91;5113839;28;20202;-61
2021/07/31 09:07:14;;;;;;;15.60;10.13;;;;;;;32.86;41.07;100780.03;5112763;28;20204;-61
2021/07/31 09:09:39;;;;;;;18.88;9.90;;;;;;;32.71;42.58;100776.50;5113450;28;20182;-61
2021/07/31 09:12:07;;;;;;;14.25;10.68;;;;;;;32.84;42.70;100770.50;5112965;28;20182;-61
2021/07/31 09:14:43;;;;;;;17.95;10.95;;;;;;;32.96;42.40;100772.31;5113659;28;20202;-61
2021/07/31 09:17:22;;;;;;;14.23;9.95;;;;;;;33.24;42.04;100771.16;5112616;28;20194;-61
2021/07/31 09:19:47;;;;;;;19.25;10.98;;;;;;;33.14;40.89;100773.13;5113600;28;20651;-61
2021/07/31 09:22:13;;;;;;;15.32;10.43;;;;;;;32.66;41.72;100697.88;5113680;28;20251;-61
2021/07/31 09:24:38;;;;;;;14.80;11.05;;;;;;;33.28;41.52;100768.63;5113469;28;20718;-60
2021/07/31 09:27:24;;;;;;;16.38;10.98;;;;;;;33.30;41.97;100749.47;5112330;28;20178;-61
2021/07/31 09:30:01;;;;;;;16.13;10.90;;;;;;;33.68;40.82;100760.59;5112731;28;20166;-61
2021/07/31 09:32:36;;;;;;;20.70;11.32;;;;;;;33.88;40.43;100757.31;5112978;28;20546;-61
2021/07/31 09:35:02;;;;;;;18.25;10.77;;;;;;;34.10;39.63;100770.69;5112959;28;20158;-62
2021/07/31 09:37:28;;;;;;;18.35;11.30;;;;;;;34.32;39.67;100771.78;5112364;28;20712;-61
2021/07/31 09:40:02;;;;;;;19.48;12.15;;;;;;;34.52;38.32;100764.78;5113146;28;20624;-61
2021/07/31 09:42:32;;;;;;;17.23;11.48;;;;;;;34.50;38.51;100758.88;5113042;27;20225;-61
2021/07/31 09:45:06;;;;;;;16.15;12.45;;;;;;;34.51;38.39;100757.50;5094519;28;20190;-61
2021/07/31 09:47:32;;;;;;;19.05;12.57;;;;;;;34.37;38.34;100756.38;5112126;28;20158;-61
2021/07/31 09:49:58;;;;;;;21.42;11.90;;;;;;;34.44;39.01;100752.63;5094692;28;20189;-62
2021/07/31 09:52:24;;;;;;;17.50;10.98;;;;;;;34.62;38.42;100751.22;5112251;28;20175;-61
2021/07/31 09:54:51;;;;;;;18.90;12.02;;;;;;;33.87;38.45;100663.03;5112062;28;20178;-61
2021/07/31 09:57:18;;;;;;;16.27;11.32;;;;;;;33.83;38.35;100649.09;5111994;28;20178;-61
2021/07/31 09:59:45;;;;;;;21.70;12.38;;;;;;;34.59;37.63;100746.63;5112686;28;20602;-62
2021/07/31 10:02:16;;;;;;;16.77;12.23;;;;;;;34.73;37.73;100737.03;5112954;28;20178;-61
2021/07/31 10:04:44;;;;;;;18.52;12.05;;;;;;;35.10;37.26;100746.44;5112472;28;20254;-61
2021/07/31 10:07:10;;;;;;;21.10;14.88;;;;;;;34.91;36.28;100715.47;5112457;28;20198;-61
2021/07/31 10:09:39;;;;;;;20.10;14.10;;;;;;;34.96;36.66;100679.13;5112921;28;20563;-61
2021/07/31 10:12:08;;;;;;;22.65;18.73;;;;;;;35.52;35.35;100747.63;5112216;28;20622;-61
2021/07/31 10:14:34;;;;;;;21.00;16.90;;;;;;;34.96;35.39;100647.44;5112980;28;20226;-61
2021/07/31 10:17:00;;;;;;;19.23;16.10;;;;;;;35.55;35.63;100713.97;5111731;28;20178;-61
2021/07/31 10:19:25;;;;;;;20.38;15.43;;;;;;;35.78;35.56;100726.59;5112916;28;20189;-61
2021/07/31 10:21:52;;;;;;;22.75;16.38;;;;;;;35.86;34.77;100724.34;5112599;28;20572;-61
2021/07/31 10:24:19;;;;;;;22.52;17.08;;;;;;;35.70;35.21;100676.97;5112282;28;20198;-61
2021/07/31 10:27:15;;;;;;;21.10;15.68;;;;;;;36.03;35.14;100723.41;5111840;28;20174;-61
2021/07/31 10:29:45;;;;;;;18.75;13.77;;;;;;;35.81;34.40;100719.63;5112281;28;20179;-61
2021/07/31 10:32:23;;;;;;;22.55;15.73;;;;;;;36.01;34.81;100711.72;5112495;28;20265;-61
2021/07/31 10:34:59;;;;;;;20.63;15.75;;;;;;;36.06;34.19;100697.00;5112417;28;20182;-61
2021/07/31 10:37:36;;;;;;;20.70;14.93;;;;;;;36.33;33.55;100709.09;5111821;28;20162;-61
2021/07/31 10:40:10;;;;;;;17.15;14.27;;;;;;;36.10;34.78;100705.19;5112265;28;20223;-61
2021/07/31 10:42:58;;;;;;;19.67;12.27;;;;;;;36.15;32.04;100704.13;5112209;28;20372;-61
2021/07/31 10:45:26;;;;;;;20.77;13.80;;;;;;;36.27;32.91;100705.78;5098729;28;20214;-62
2021/07/31 10:47:51;;;;;;;16.63;13.77;;;;;;;36.52;32.40;100700.41;5111275;28;20175;-61
2021/07/31 10:50:26;;;;;;;18.60;12.63;;;;;;;36.79;32.50;100700.94;5112070;28;20230;-61
2021/07/31 10:52:52;;;;;;;15.25;10.32;;;;;;;37.07;29.93;100702.16;5111988;28;20260;-61
2021/07/31 10:55:22;;;;;;;14.10;9.32;;;;;;;37.28;30.81;100694.31;5112052;28;20227;-61
2021/07/31 10:57:54;;;;;;;15.38;9.80;;;;;;;37.26;30.03;100691.25;5110962;28;20170;-61
2021/07/31 11:00:23;;;;;;;12.80;7.65;;;;;;;37.39;26.86;100696.50;5111776;28;20205;-61
2021/07/31 11:02:48;;;;;;;16.00;8.55;;;;;;;37.05;27.45;100650.03;5111802;28;20179;-62
2021/07/31 11:05:14;;;;;;;12.38;8.93;;;;;;;37.09;28.44;100691.50;5111549;28;20205;-62
2021/07/31 11:08:12;;;;;;;14.73;9.07;;;;;;;37.19;29.06;100682.78;5110854;28;20619;-61
2021/07/31 11:10:47;;;;;;;13.40;9.32;;;;;;;37.32;29.31;100680.09;5055401;28;20209;-62